sensor_id;sensor_type;location;lat;lon;timestamp;P1;durP1;ratioP1;P2;durP2;ratioP2
53674;SDS011;39574;50.534;8.500;2023-04-15T00:04:55;8.4;;;4.8;;
53674;SDS011;39574;50.534;8.500;2023-04-15T00:09:54;7.5;;;4.3;;
53674;SDS011;39574;50.534;8.500;2023-04-15T00:14:52;8.3;;;4.5;;
53674;SDS011;39574;50.534;8.500;2023-04-15T00:19:51;8.8;;;4.8;;
53674;SDS011;39574;50.534;8.500;2023-04-15T00:24:51;10.2;;;5.6;;
53674;SDS011;39574;50.534;8.500;2023-04-15T00:29:49;11.2;;;6.2;;
53674;SDS011;39574;50.534;8.500;2023-04-15T00:34:48;12.3;;;6.7;;
53674;SDS011;39574;50.534;8.500;2023-04-15T00:39:47;12.3;;;6.5;;
53674;SDS011;39574;50.534;8.500;2023-04-15T00:44:45;10.3;;;5.8;;
53674;SDS011;39574;50.534;8.500;2023-04-15T00:49:44;10.3;;;5.0;;
53674;SDS011;39574;50.534;8.500;2023-04-15T00:54:43;9.8;;;4.7;;
53674;SDS011;39574;50.534;8.500;2023-04-15T00:59:42;9.6;;;4.6;;
53674;SDS011;39574;50.534;8.500;2023-04-15T01:04:41;8.8;;;4.4;;
53674;SDS011;39574;50.534;8.500;2023-04-15T01:09:39;8.7;;;4.5;;
53674;SDS011;39574;50.534;8.500;2023-04-15T01:14:38;9.0;;;4.3;;
53674;SDS011;39574;50.534;8.500;2023-04-15T01:19:37;7.8;;;4.1;;
53674;SDS011;39574;50.534;8.500;2023-04-15T01:24:36;6.8;;;3.8;;
53674;SDS011;39574;50.534;8.500;2023-04-15T01:29:36;6.0;;;3.6;;
53674;SDS011;39574;50.534;8.500;2023-04-15T01:34:33;5.3;;;3.3;;
53674;SDS011;39574;50.534;8.500;2023-04-15T01:39:32;5.3;;;3.2;;
53674;SDS011;39574;50.534;8.500;2023-04-15T01:44:31;6.1;;;3.2;;
53674;SDS011;39574;50.534;8.500;2023-04-15T01:49:30;7.2;;;4.2;;
53674;SDS011;39574;50.534;8.500;2023-04-15T01:54:29;7.0;;;4.2;;
53674;SDS011;39574;50.534;8.500;2023-04-15T01:59:29;7.4;;;4.3;;
53674;SDS011;39574;50.534;8.500;2023-04-15T02:04:26;7.6;;;4.1;;
53674;SDS011;39574;50.534;8.500;2023-04-15T02:09:25;7.3;;;3.6;;
53674;SDS011;39574;50.534;8.500;2023-04-15T02:14:24;6.5;;;3.3;;
53674;SDS011;39574;50.534;8.500;2023-04-15T02:19:23;6.3;;;3.4;;
53674;SDS011;39574;50.534;8.500;2023-04-15T02:24:22;6.1;;;3.3;;
53674;SDS011;39574;50.534;8.500;2023-04-15T02:29:20;6.0;;;3.3;;
53674;SDS011;39574;50.534;8.500;2023-04-15T02:34:19;6.2;;;3.4;;
53674;SDS011;39574;50.534;8.500;2023-04-15T02:39:18;6.9;;;3.2;;
53674;SDS011;39574;50.534;8.500;2023-04-15T02:44:17;7.2;;;3.2;;
53674;SDS011;39574;50.534;8.500;2023-04-15T02:49:15;6.9;;;3.5;;
53674;SDS011;39574;50.534;8.500;2023-04-15T02:54:14;7.7;;;3.8;;
53674;SDS011;39574;50.534;8.500;2023-04-15T02:59:13;6.9;;;3.8;;
53674;SDS011;39574;50.534;8.500;2023-04-15T03:04:12;6.5;;;3.8;;
53674;SDS011;39574;50.534;8.500;2023-04-15T03:09:11;6.7;;;3.8;;
53674;SDS011;39574;50.534;8.500;2023-04-15T03:14:09;6.5;;;3.6;;
53674;SDS011;39574;50.534;8.500;2023-04-15T03:19:08;7.1;;;3.7;;
53674;SDS011;39574;50.534;8.500;2023-04-15T03:24:07;7.9;;;3.9;;
53674;SDS011;39574;50.534;8.500;2023-04-15T03:29:06;8.3;;;3.8;;
53674;SDS011;39574;50.534;8.500;2023-04-15T03:34:05;7.7;;;3.8;;
53674;SDS011;39574;50.534;8.500;2023-04-15T03:39:03;7.1;;;3.8;;
53674;SDS011;39574;50.534;8.500;2023-04-15T03:44:02;7.7;;;3.8;;
53674;SDS011;39574;50.534;8.500;2023-04-15T03:49:01;7.3;;;3.9;;
53674;SDS011;39574;50.534;8.500;2023-04-15T03:54:00;6.2;;;3.7;;
53674;SDS011;39574;50.534;8.500;2023-04-15T03:58:58;5.7;;;3.6;;
53674;SDS011;39574;50.534;8.500;2023-04-15T04:03:57;6.3;;;3.5;;
53674;SDS011;39574;50.534;8.500;2023-04-15T04:08:56;6.8;;;3.8;;
53674;SDS011;39574;50.534;8.500;2023-04-15T04:13:55;7.0;;;3.7;;
53674;SDS011;39574;50.534;8.500;2023-04-15T04:18:54;7.0;;;3.7;;
53674;SDS011;39574;50.534;8.500;2023-04-15T04:23:52;7.0;;;3.5;;
53674;SDS011;39574;50.534;8.500;2023-04-15T04:28:51;7.0;;;3.3;;
53674;SDS011;39574;50.534;8.500;2023-04-15T04:33:50;6.9;;;3.3;;
53674;SDS011;39574;50.534;8.500;2023-04-15T04:38:48;8.2;;;4.9;;
53674;SDS011;39574;50.534;8.500;2023-04-15T04:43:47;8.1;;;4.9;;
53674;SDS011;39574;50.534;8.500;2023-04-15T04:48:46;8.1;;;5.1;;
53674;SDS011;39574;50.534;8.500;2023-04-15T04:53:45;8.3;;;5.0;;
53674;SDS011;39574;50.534;8.500;2023-04-15T04:58:45;8.1;;;4.5;;
53674;SDS011;39574;50.534;8.500;2023-04-15T05:08:41;11.0;;;7.2;;
53674;SDS011;39574;50.534;8.500;2023-04-15T05:13:40;11.2;;;8.3;;
53674;SDS011;39574;50.534;8.500;2023-04-15T05:18:39;11.3;;;7.9;;
53674;SDS011;39574;50.534;8.500;2023-04-15T05:23:37;10.5;;;7.5;;
53674;SDS011;39574;50.534;8.500;2023-04-15T05:28:36;9.3;;;6.6;;
53674;SDS011;39574;50.534;8.500;2023-04-15T05:33:35;8.5;;;5.4;;
53674;SDS011;39574;50.534;8.500;2023-04-15T05:38:34;9.1;;;5.1;;
53674;SDS011;39574;50.534;8.500;2023-04-15T05:43:32;9.1;;;4.7;;
53674;SDS011;39574;50.534;8.500;2023-04-15T05:48:33;8.6;;;4.4;;
53674;SDS011;39574;50.534;8.500;2023-04-15T05:53:30;8.5;;;4.4;;
53674;SDS011;39574;50.534;8.500;2023-04-15T05:58:29;7.6;;;4.1;;
53674;SDS011;39574;50.534;8.500;2023-04-15T06:03:27;8.0;;;4.2;;
53674;SDS011;39574;50.534;8.500;2023-04-15T06:08:26;9.1;;;4.3;;
53674;SDS011;39574;50.534;8.500;2023-04-15T06:13:25;9.4;;;4.6;;
53674;SDS011;39574;50.534;8.500;2023-04-15T06:18:24;8.7;;;4.6;;
53674;SDS011;39574;50.534;8.500;2023-04-15T06:23:23;8.6;;;4.6;;
53674;SDS011;39574;50.534;8.500;2023-04-15T06:28:22;9.1;;;5.1;;
53674;SDS011;39574;50.534;8.500;2023-04-15T06:33:20;9.5;;;5.3;;
53674;SDS011;39574;50.534;8.500;2023-04-15T06:38:19;10.2;;;5.6;;
53674;SDS011;39574;50.534;8.500;2023-04-15T06:43:18;10.5;;;5.8;;
53674;SDS011;39574;50.534;8.500;2023-04-15T06:48:17;10.9;;;6.1;;
53674;SDS011;39574;50.534;8.500;2023-04-15T06:53:16;10.9;;;6.4;;
53674;SDS011;39574;50.534;8.500;2023-04-15T06:58:15;9.8;;;6.0;;
53674;SDS011;39574;50.534;8.500;2023-04-15T07:03:13;9.8;;;6.3;;
53674;SDS011;39574;50.534;8.500;2023-04-15T07:08:12;10.3;;;5.6;;
53674;SDS011;39574;50.534;8.500;2023-04-15T07:13:11;9.5;;;5.6;;
53674;SDS011;39574;50.534;8.500;2023-04-15T07:18:10;9.3;;;5.5;;
53674;SDS011;39574;50.534;8.500;2023-04-15T07:23:09;10.0;;;5.2;;
53674;SDS011;39574;50.534;8.500;2023-04-15T07:28:08;10.5;;;5.3;;
53674;SDS011;39574;50.534;8.500;2023-04-15T07:33:07;10.2;;;5.4;;
53674;SDS011;39574;50.534;8.500;2023-04-15T07:38:06;10.5;;;6.0;;
53674;SDS011;39574;50.534;8.500;2023-04-15T07:48:04;11.5;;;7.2;;
53674;SDS011;39574;50.534;8.500;2023-04-15T07:53:03;10.3;;;6.7;;
53674;SDS011;39574;50.534;8.500;2023-04-15T07:58:01;9.9;;;6.2;;
53674;SDS011;39574;50.534;8.500;2023-04-15T08:03:00;9.1;;;5.7;;
53674;SDS011;39574;50.534;8.500;2023-04-15T08:07:59;8.5;;;5.5;;
53674;SDS011;39574;50.534;8.500;2023-04-15T08:12:58;8.6;;;5.4;;
53674;SDS011;39574;50.534;8.500;2023-04-15T08:17:57;9.8;;;5.3;;
53674;SDS011;39574;50.534;8.500;2023-04-15T08:22:56;9.5;;;5.0;;
53674;SDS011;39574;50.534;8.500;2023-04-15T08:27:55;9.8;;;5.0;;
53674;SDS011;39574;50.534;8.500;2023-04-15T08:32:54;9.3;;;5.0;;
53674;SDS011;39574;50.534;8.500;2023-04-15T08:37:53;8.8;;;5.0;;
53674;SDS011;39574;50.534;8.500;2023-04-15T08:42:52;8.3;;;5.0;;
53674;SDS011;39574;50.534;8.500;2023-04-15T08:47:51;8.0;;;5.0;;
53674;SDS011;39574;50.534;8.500;2023-04-15T08:52:52;8.9;;;5.3;;
53674;SDS011;39574;50.534;8.500;2023-04-15T08:57:49;8.5;;;5.2;;
53674;SDS011;39574;50.534;8.500;2023-04-15T09:02:48;7.7;;;4.8;;
53674;SDS011;39574;50.534;8.500;2023-04-15T09:07:47;6.8;;;4.3;;
53674;SDS011;39574;50.534;8.500;2023-04-15T09:12:46;6.0;;;3.8;;
53674;SDS011;39574;50.534;8.500;2023-04-15T09:17:45;5.9;;;3.5;;
53674;SDS011;39574;50.534;8.500;2023-04-15T09:22:44;6.6;;;4.6;;
53674;SDS011;39574;50.534;8.500;2023-04-15T09:27:46;6.6;;;4.3;;
53674;SDS011;39574;50.534;8.500;2023-04-15T09:32:47;6.5;;;3.9;;
53674;SDS011;39574;50.534;8.500;2023-04-15T09:37:41;6.7;;;3.4;;
53674;SDS011;39574;50.534;8.500;2023-04-15T09:42:56;6.3;;;3.1;;
53674;SDS011;39574;50.534;8.500;2023-04-15T09:47:39;6.0;;;2.9;;
53674;SDS011;39574;50.534;8.500;2023-04-15T09:52:40;5.3;;;2.6;;
53674;SDS011;39574;50.534;8.500;2023-04-15T09:57:37;4.6;;;2.2;;
53674;SDS011;39574;50.534;8.500;2023-04-15T10:02:36;3.6;;;1.7;;
53674;SDS011;39574;50.534;8.500;2023-04-15T10:07:35;2.8;;;1.4;;
53674;SDS011;39574;50.534;8.500;2023-04-15T10:12:35;2.3;;;1.2;;
53674;SDS011;39574;50.534;8.500;2023-04-15T10:17:33;2.3;;;1.2;;
53674;SDS011;39574;50.534;8.500;2023-04-15T10:22:32;2.4;;;1.3;;
53674;SDS011;39574;50.534;8.500;2023-04-15T10:27:32;2.2;;;1.2;;
53674;SDS011;39574;50.534;8.500;2023-04-15T10:32:30;2.2;;;1.3;;
53674;SDS011;39574;50.534;8.500;2023-04-15T10:37:33;2.9;;;1.5;;
53674;SDS011;39574;50.534;8.500;2023-04-15T10:42:32;2.7;;;1.4;;
53674;SDS011;39574;50.534;8.500;2023-04-15T10:47:27;2.9;;;1.6;;
53674;SDS011;39574;50.534;8.500;2023-04-15T10:52:27;2.9;;;1.6;;
53674;SDS011;39574;50.534;8.500;2023-04-15T10:57:26;3.2;;;1.7;;
53674;SDS011;39574;50.534;8.500;2023-04-15T11:02:32;3.2;;;1.8;;
53674;SDS011;39574;50.534;8.500;2023-04-15T11:07:40;3.9;;;2.0;;
53674;SDS011;39574;50.534;8.500;2023-04-15T11:12:22;3.8;;;2.0;;
53674;SDS011;39574;50.534;8.500;2023-04-15T11:17:25;4.4;;;2.2;;
53674;SDS011;39574;50.534;8.500;2023-04-15T11:22:20;4.3;;;2.3;;
53674;SDS011;39574;50.534;8.500;2023-04-15T11:27:20;4.6;;;2.4;;
53674;SDS011;39574;50.534;8.500;2023-04-15T11:32:18;6.3;;;3.9;;
53674;SDS011;39574;50.534;8.500;2023-04-15T11:37:17;5.9;;;3.7;;
53674;SDS011;39574;50.534;8.500;2023-04-15T11:42:17;5.5;;;3.6;;
53674;SDS011;39574;50.534;8.500;2023-04-15T11:47:23;5.6;;;3.6;;
53674;SDS011;39574;50.534;8.500;2023-04-15T11:52:14;6.4;;;4.1;;
53674;SDS011;39574;50.534;8.500;2023-04-15T11:57:13;6.2;;;4.0;;
53674;SDS011;39574;50.534;8.500;2023-04-15T12:02:12;5.5;;;3.5;;
53674;SDS011;39574;50.534;8.500;2023-04-15T12:12:11;5.5;;;3.3;;
53674;SDS011;39574;50.534;8.500;2023-04-15T12:17:09;5.3;;;3.2;;
53674;SDS011;39574;50.534;8.500;2023-04-15T12:27:08;5.1;;;3.2;;
53674;SDS011;39574;50.534;8.500;2023-04-15T12:32:07;6.1;;;4.4;;
53674;SDS011;39574;50.534;8.500;2023-04-15T12:37:05;6.2;;;4.5;;
53674;SDS011;39574;50.534;8.500;2023-04-15T12:42:04;6.2;;;4.5;;
53674;SDS011;39574;50.534;8.500;2023-04-15T12:47:03;7.8;;;5.5;;
53674;SDS011;39574;50.534;8.500;2023-04-15T12:52:04;7.7;;;5.3;;
53674;SDS011;39574;50.534;8.500;2023-04-15T12:57:01;6.3;;;4.4;;
53674;SDS011;39574;50.534;8.500;2023-04-15T13:02:00;5.0;;;3.5;;
53674;SDS011;39574;50.534;8.500;2023-04-15T13:06:59;5.0;;;3.2;;
53674;SDS011;39574;50.534;8.500;2023-04-15T13:11:57;5.7;;;3.8;;
53674;SDS011;39574;50.534;8.500;2023-04-15T13:16:56;6.0;;;4.2;;
53674;SDS011;39574;50.534;8.500;2023-04-15T13:21:55;7.0;;;4.5;;
53674;SDS011;39574;50.534;8.500;2023-04-15T13:26:54;7.5;;;5.0;;
53674;SDS011;39574;50.534;8.500;2023-04-15T13:31:54;8.2;;;5.3;;
53674;SDS011;39574;50.534;8.500;2023-04-15T13:36:52;8.1;;;5.4;;
53674;SDS011;39574;50.534;8.500;2023-04-15T13:41:51;7.6;;;5.1;;
53674;SDS011;39574;50.534;8.500;2023-04-15T13:46:50;7.0;;;4.8;;
53674;SDS011;39574;50.534;8.500;2023-04-15T13:51:49;7.3;;;4.4;;
53674;SDS011;39574;50.534;8.500;2023-04-15T13:56:48;6.2;;;3.9;;
53674;SDS011;39574;50.534;8.500;2023-04-15T14:01:47;5.5;;;3.5;;
53674;SDS011;39574;50.534;8.500;2023-04-15T14:06:46;7.4;;;5.2;;
53674;SDS011;39574;50.534;8.500;2023-04-15T14:11:45;5.9;;;4.3;;
53674;SDS011;39574;50.534;8.500;2023-04-15T14:16:44;5.1;;;3.8;;
53674;SDS011;39574;50.534;8.500;2023-04-15T14:21:43;8.1;;;6.4;;
53674;SDS011;39574;50.534;8.500;2023-04-15T14:26:41;7.0;;;5.4;;
53674;SDS011;39574;50.534;8.500;2023-04-15T14:31:40;9.3;;;6.7;;
53674;SDS011;39574;50.534;8.500;2023-04-15T14:36:39;9.0;;;6.1;;
53674;SDS011;39574;50.534;8.500;2023-04-15T14:41:38;7.2;;;4.7;;
53674;SDS011;39574;50.534;8.500;2023-04-15T14:46:37;7.1;;;4.8;;
53674;SDS011;39574;50.534;8.500;2023-04-15T14:51:36;6.0;;;4.1;;
53674;SDS011;39574;50.534;8.500;2023-04-15T14:56:35;4.8;;;3.2;;
53674;SDS011;39574;50.534;8.500;2023-04-15T15:01:34;4.2;;;2.7;;
53674;SDS011;39574;50.534;8.500;2023-04-15T15:06:33;4.2;;;2.6;;
53674;SDS011;39574;50.534;8.500;2023-04-15T15:11:32;4.3;;;3.0;;
53674;SDS011;39574;50.534;8.500;2023-04-15T15:16:31;4.2;;;2.8;;
53674;SDS011;39574;50.534;8.500;2023-04-15T15:21:30;3.7;;;2.5;;
53674;SDS011;39574;50.534;8.500;2023-04-15T15:26:28;4.8;;;3.6;;
53674;SDS011;39574;50.534;8.500;2023-04-15T15:31:28;4.9;;;3.4;;
53674;SDS011;39574;50.534;8.500;2023-04-15T15:36:26;5.2;;;3.6;;
53674;SDS011;39574;50.534;8.500;2023-04-15T15:41:26;4.3;;;3.0;;
53674;SDS011;39574;50.534;8.500;2023-04-15T15:46:25;5.8;;;3.9;;
53674;SDS011;39574;50.534;8.500;2023-04-15T15:51:23;4.9;;;3.4;;
53674;SDS011;39574;50.534;8.500;2023-04-15T15:56:22;4.8;;;3.1;;
53674;SDS011;39574;50.534;8.500;2023-04-15T16:01:21;4.1;;;2.7;;
53674;SDS011;39574;50.534;8.500;2023-04-15T16:06:20;3.7;;;2.2;;
53674;SDS011;39574;50.534;8.500;2023-04-15T16:11:19;3.7;;;2.3;;
53674;SDS011;39574;50.534;8.500;2023-04-15T16:16:18;3.2;;;2.0;;
53674;SDS011;39574;50.534;8.500;2023-04-15T16:21:17;4.1;;;2.9;;
53674;SDS011;39574;50.534;8.500;2023-04-15T16:26:16;4.8;;;3.3;;
53674;SDS011;39574;50.534;8.500;2023-04-15T16:31:15;4.2;;;2.7;;
53674;SDS011;39574;50.534;8.500;2023-04-15T16:36:14;3.2;;;2.1;;
53674;SDS011;39574;50.534;8.500;2023-04-15T16:41:13;2.7;;;1.8;;
53674;SDS011;39574;50.534;8.500;2023-04-15T16:46:12;2.5;;;1.7;;
53674;SDS011;39574;50.534;8.500;2023-04-15T16:51:10;2.4;;;1.6;;
53674;SDS011;39574;50.534;8.500;2023-04-15T17:01:08;2.4;;;1.5;;
53674;SDS011;39574;50.534;8.500;2023-04-15T17:06:07;3.7;;;2.4;;
53674;SDS011;39574;50.534;8.500;2023-04-15T17:11:06;4.1;;;2.5;;
53674;SDS011;39574;50.534;8.500;2023-04-15T17:16:05;3.7;;;2.3;;
53674;SDS011;39574;50.534;8.500;2023-04-15T17:21:04;3.4;;;1.9;;
53674;SDS011;39574;50.534;8.500;2023-04-15T17:26:03;3.1;;;1.6;;
53674;SDS011;39574;50.534;8.500;2023-04-15T17:31:02;5.0;;;2.8;;
53674;SDS011;39574;50.534;8.500;2023-04-15T17:36:01;5.1;;;2.9;;
53674;SDS011;39574;50.534;8.500;2023-04-15T17:41:00;5.7;;;3.5;;
53674;SDS011;39574;50.534;8.500;2023-04-15T17:45:58;6.3;;;3.9;;
53674;SDS011;39574;50.534;8.500;2023-04-15T17:50:57;6.2;;;3.9;;
53674;SDS011;39574;50.534;8.500;2023-04-15T17:55:56;5.3;;;3.3;;
53674;SDS011;39574;50.534;8.500;2023-04-15T18:00:55;6.6;;;4.3;;
53674;SDS011;39574;50.534;8.500;2023-04-15T18:05:54;7.2;;;5.2;;
53674;SDS011;39574;50.534;8.500;2023-04-15T18:10:53;5.9;;;3.8;;
53674;SDS011;39574;50.534;8.500;2023-04-15T18:15:55;4.2;;;2.7;;
53674;SDS011;39574;50.534;8.500;2023-04-15T18:20:51;8.2;;;4.7;;
53674;SDS011;39574;50.534;8.500;2023-04-15T18:25:50;6.7;;;3.7;;
53674;SDS011;39574;50.534;8.500;2023-04-15T18:30:49;5.1;;;2.8;;
53674;SDS011;39574;50.534;8.500;2023-04-15T18:36:20;2.3;;;1.4;;
53674;SDS011;39574;50.534;8.500;2023-04-15T18:40:51;1.9;;;1.2;;
53674;SDS011;39574;50.534;8.500;2023-04-15T18:45:46;5.2;;;3.0;;
53674;SDS011;39574;50.534;8.500;2023-04-15T18:50:45;5.6;;;3.0;;
53674;SDS011;39574;50.534;8.500;2023-04-15T18:55:44;5.1;;;2.9;;
53674;SDS011;39574;50.534;8.500;2023-04-15T19:00:42;5.1;;;2.6;;
53674;SDS011;39574;50.534;8.500;2023-04-15T19:05:42;3.5;;;1.8;;
53674;SDS011;39574;50.534;8.500;2023-04-15T19:10:41;3.2;;;1.8;;
53674;SDS011;39574;50.534;8.500;2023-04-15T19:15:39;3.2;;;1.9;;
53674;SDS011;39574;50.534;8.500;2023-04-15T19:20:38;4.3;;;2.6;;
53674;SDS011;39574;50.534;8.500;2023-04-15T19:25:37;3.9;;;2.6;;
53674;SDS011;39574;50.534;8.500;2023-04-15T19:30:36;4.9;;;3.5;;
53674;SDS011;39574;50.534;8.500;2023-04-15T19:35:34;4.2;;;2.8;;
53674;SDS011;39574;50.534;8.500;2023-04-15T19:40:34;3.3;;;2.2;;
53674;SDS011;39574;50.534;8.500;2023-04-15T19:45:33;2.8;;;1.9;;
53674;SDS011;39574;50.534;8.500;2023-04-15T19:50:31;2.7;;;1.7;;
53674;SDS011;39574;50.534;8.500;2023-04-15T19:55:30;3.8;;;2.4;;
53674;SDS011;39574;50.534;8.500;2023-04-15T20:00:29;4.1;;;2.3;;
53674;SDS011;39574;50.534;8.500;2023-04-15T20:05:27;3.7;;;2.1;;
53674;SDS011;39574;50.534;8.500;2023-04-15T20:10:27;3.4;;;1.9;;
53674;SDS011;39574;50.534;8.500;2023-04-15T20:15:26;4.9;;;2.9;;
53674;SDS011;39574;50.534;8.500;2023-04-15T20:20:25;4.0;;;2.4;;
53674;SDS011;39574;50.534;8.500;2023-04-15T20:25:24;3.6;;;2.2;;
53674;SDS011;39574;50.534;8.500;2023-04-15T20:30:23;3.7;;;2.3;;
53674;SDS011;39574;50.534;8.500;2023-04-15T20:35:21;3.2;;;2.0;;
53674;SDS011;39574;50.534;8.500;2023-04-15T20:40:21;3.2;;;1.9;;
53674;SDS011;39574;50.534;8.500;2023-04-15T20:45:19;4.2;;;2.3;;
53674;SDS011;39574;50.534;8.500;2023-04-15T20:50:19;4.0;;;2.1;;
53674;SDS011;39574;50.534;8.500;2023-04-15T20:55:17;4.3;;;2.4;;
53674;SDS011;39574;50.534;8.500;2023-04-15T21:00:16;3.7;;;2.1;;
53674;SDS011;39574;50.534;8.500;2023-04-15T21:05:15;3.3;;;2.0;;
53674;SDS011;39574;50.534;8.500;2023-04-15T21:10:14;3.8;;;1.9;;
53674;SDS011;39574;50.534;8.500;2023-04-15T21:15:12;3.1;;;1.7;;
53674;SDS011;39574;50.534;8.500;2023-04-15T21:20:12;3.1;;;1.6;;
53674;SDS011;39574;50.534;8.500;2023-04-15T21:25:11;3.9;;;2.1;;
53674;SDS011;39574;50.534;8.500;2023-04-15T21:30:10;4.0;;;2.1;;
53674;SDS011;39574;50.534;8.500;2023-04-15T21:35:09;3.9;;;2.0;;
53674;SDS011;39574;50.534;8.500;2023-04-15T21:45:06;3.6;;;2.0;;
53674;SDS011;39574;50.534;8.500;2023-04-15T21:50:05;3.7;;;2.1;;
53674;SDS011;39574;50.534;8.500;2023-04-15T21:55:05;4.4;;;2.5;;
53674;SDS011;39574;50.534;8.500;2023-04-15T22:00:04;4.4;;;2.5;;
53674;SDS011;39574;50.534;8.500;2023-04-15T22:05:06;4.5;;;2.7;;
53674;SDS011;39574;50.534;8.500;2023-04-15T22:10:00;4.8;;;2.8;;
53674;SDS011;39574;50.534;8.500;2023-04-15T22:14:59;5.0;;;3.0;;
53674;SDS011;39574;50.534;8.500;2023-04-15T22:24:57;5.4;;;3.3;;
53674;SDS011;39574;50.534;8.500;2023-04-15T22:30:00;6.2;;;3.7;;
53674;SDS011;39574;50.534;8.500;2023-04-15T22:39:54;7.1;;;4.4;;
53674;SDS011;39574;50.534;8.500;2023-04-15T22:44:53;8.3;;;4.9;;
53674;SDS011;39574;50.534;8.500;2023-04-15T22:49:52;8.2;;;5.1;;
53674;SDS011;39574;50.534;8.500;2023-04-15T22:54:51;8.4;;;5.3;;
53674;SDS011;39574;50.534;8.500;2023-04-15T22:59:50;8.3;;;5.3;;
53674;SDS011;39574;50.534;8.500;2023-04-15T23:09:48;8.5;;;5.4;;
53674;SDS011;39574;50.534;8.500;2023-04-15T23:14:47;9.5;;;5.5;;
53674;SDS011;39574;50.534;8.500;2023-04-15T23:19:45;9.9;;;5.8;;
53674;SDS011;39574;50.534;8.500;2023-04-15T23:24:46;9.9;;;6.0;;
53674;SDS011;39574;50.534;8.500;2023-04-15T23:29:43;9.9;;;6.2;;
53674;SDS011;39574;50.534;8.500;2023-04-15T23:34:42;9.9;;;6.2;;
53674;SDS011;39574;50.534;8.500;2023-04-15T23:39:40;10.0;;;6.2;;
53674;SDS011;39574;50.534;8.500;2023-04-15T23:44:40;10.6;;;6.2;;
53674;SDS011;39574;50.534;8.500;2023-04-15T23:54:38;10.2;;;6.0;;
53674;SDS011;39574;50.534;8.500;2023-04-15T23:59:37;10.0;;;5.9;;
